createdAt,value
2018-12-25T00:01:38.200Z,4.02
2018-12-25T00:02:38.219Z,4.00
2018-12-25T00:04:33.728Z,4.00
2018-12-25T00:05:33.711Z,3.98
2018-12-25T00:07:30.148Z,3.92
2018-12-25T00:08:30.085Z,3.90
2018-12-25T00:10:26.527Z,3.75
2018-12-25T00:11:26.481Z,3.68
2018-12-25T00:13:22.918Z,3.63
2018-12-25T00:14:22.854Z,3.64
2018-12-25T00:16:19.847Z,3.68
2018-12-25T00:17:19.819Z,3.62
2018-12-25T00:19:16.193Z,3.70
2018-12-25T00:20:16.129Z,3.63
2018-12-25T00:22:12.894Z,3.67
2018-12-25T00:23:12.824Z,3.64
2018-12-25T00:25:09.300Z,3.64
2018-12-25T00:26:09.260Z,3.67
2018-12-25T00:28:05.813Z,3.67
2018-12-25T00:29:05.751Z,3.67
2018-12-25T00:31:01.243Z,3.81
2018-12-25T00:32:01.145Z,3.81
2018-12-25T00:33:58.010Z,3.88
2018-12-25T00:34:57.977Z,3.89
2018-12-25T00:36:54.987Z,3.96
2018-12-25T00:37:54.936Z,3.95
2018-12-25T00:39:52.662Z,3.99
2018-12-25T00:40:52.610Z,3.99
2018-12-25T00:42:49.062Z,3.98
2018-12-25T00:43:49.007Z,3.96
2018-12-25T00:45:47.833Z,3.96
2018-12-25T00:46:47.786Z,4.00
2018-12-25T00:48:44.846Z,3.99
2018-12-25T00:49:44.782Z,4.07
2018-12-25T00:51:40.705Z,4.04
2018-12-25T00:52:40.474Z,4.06
2018-12-25T00:54:36.861Z,4.11
2018-12-25T00:55:36.810Z,4.10
2018-12-25T00:57:33.290Z,4.20
2018-12-25T00:58:33.227Z,4.14
2018-12-25T01:00:29.084Z,4.31
2018-12-25T01:01:29.061Z,4.20
2018-12-25T01:03:24.589Z,4.31
2018-12-25T01:04:24.500Z,4.34
2018-12-25T01:06:19.998Z,4.25
2018-12-25T01:07:19.942Z,4.26
2018-12-25T01:09:15.471Z,4.25
2018-12-25T01:10:15.351Z,4.38
2018-12-25T01:12:12.907Z,4.29
2018-12-25T01:13:12.863Z,4.31
2018-12-25T01:15:09.617Z,4.26
2018-12-25T01:16:09.546Z,4.35
2018-12-25T01:18:05.961Z,4.31
2018-12-25T01:19:05.923Z,4.25
2018-12-25T01:21:02.356Z,4.29
2018-12-25T01:22:02.340Z,4.35
2018-12-25T01:23:59.208Z,4.39
2018-12-25T01:24:59.153Z,4.32
2018-12-25T01:26:55.631Z,4.36
2018-12-25T01:27:55.572Z,4.31
2018-12-25T01:29:52.425Z,4.29
2018-12-25T01:30:52.362Z,4.31
2018-12-25T01:32:50.964Z,4.36
2018-12-25T01:33:50.941Z,4.32
2018-12-25T01:35:48.478Z,4.39
2018-12-25T01:36:48.413Z,4.35
2018-12-25T01:38:44.150Z,4.42
2018-12-25T01:39:44.052Z,4.43
2018-12-25T01:41:39.546Z,4.46
2018-12-25T01:42:39.481Z,4.43
2018-12-25T01:44:34.994Z,4.38
2018-12-25T01:45:34.929Z,4.39
2018-12-25T01:47:31.454Z,4.38
2018-12-25T01:48:31.417Z,4.28
2018-12-25T01:50:27.891Z,4.32
2018-12-25T01:51:27.833Z,4.28
2018-12-25T01:53:23.600Z,4.35
2018-12-25T01:54:23.535Z,4.36
2018-12-25T01:56:20.010Z,4.49
2018-12-25T01:57:19.966Z,4.46
2018-12-25T01:59:16.431Z,4.44
2018-12-25T02:00:16.357Z,4.42
2018-12-25T02:02:12.817Z,4.44
2018-12-25T02:03:12.775Z,4.47
2018-12-25T02:05:09.312Z,4.56
2018-12-25T02:06:09.255Z,4.53
2018-12-25T02:08:04.695Z,4.57
2018-12-25T02:09:04.644Z,4.59
2018-12-25T02:11:02.016Z,4.59
2018-12-25T02:12:00.481Z,4.56
2018-12-25T02:13:57.325Z,4.65
2018-12-25T02:14:57.295Z,4.54
2018-12-25T02:16:53.163Z,4.57
2018-12-25T02:17:53.112Z,4.54
2018-12-25T02:19:50.702Z,4.61
2018-12-25T02:20:50.691Z,4.56
2018-12-25T02:23:11.533Z,4.49
2018-12-25T02:24:11.488Z,4.51
2018-12-25T02:26:07.880Z,4.47
2018-12-25T02:27:07.815Z,4.57
2018-12-25T02:29:04.250Z,4.53
2018-12-25T02:30:04.192Z,4.54
2018-12-25T02:32:01.190Z,4.51
2018-12-25T02:33:01.141Z,4.61
2018-12-25T02:34:58.727Z,4.67
2018-12-25T02:35:58.547Z,4.64
2018-12-25T02:37:57.915Z,4.69
2018-12-25T02:38:57.857Z,4.62
2018-12-25T02:40:54.650Z,4.65
2018-12-25T02:41:54.590Z,4.62
2018-12-25T02:43:52.291Z,4.67
2018-12-25T02:44:52.248Z,4.65
2018-12-25T02:46:48.745Z,4.64
2018-12-25T02:47:48.680Z,4.67
2018-12-25T02:49:50.197Z,4.69
2018-12-25T02:50:45.631Z,4.62
2018-12-25T02:52:42.050Z,4.67
2018-12-25T02:53:42.008Z,4.71
2018-12-25T02:55:38.469Z,4.69
2018-12-25T02:56:38.405Z,4.77
2018-12-25T02:58:34.852Z,4.74
2018-12-25T02:59:34.794Z,4.67
2018-12-25T03:01:30.305Z,4.71
2018-12-25T03:02:30.239Z,4.67
2018-12-25T03:04:26.678Z,4.72
2018-12-25T03:05:26.612Z,4.72
2018-12-25T03:07:22.091Z,4.71
2018-12-25T03:08:22.041Z,4.67
2018-12-25T03:10:31.308Z,4.72
2018-12-25T03:11:31.253Z,4.71
2018-12-25T03:13:27.827Z,4.71
2018-12-25T03:14:27.827Z,4.74
2018-12-25T03:16:24.142Z,4.74
2018-12-25T03:17:24.082Z,4.86
2018-12-25T03:19:20.438Z,4.87
2018-12-25T03:20:20.386Z,4.77
2018-12-25T03:22:17.852Z,4.77
2018-12-25T03:23:17.792Z,4.80
2018-12-25T03:25:16.055Z,4.87
2018-12-25T03:26:16.016Z,4.79
2018-12-25T03:28:23.223Z,4.87
2018-12-25T03:29:12.331Z,4.94
2018-12-25T03:31:07.946Z,4.96
2018-12-25T03:32:07.892Z,4.90
2018-12-25T03:34:06.023Z,4.87
2018-12-25T03:35:17.199Z,4.90
2018-12-25T03:37:02.770Z,4.93
2018-12-25T03:38:13.448Z,4.90
2018-12-25T03:39:59.635Z,4.90
2018-12-25T03:40:59.601Z,4.88
2018-12-25T03:42:56.894Z,4.93
2018-12-25T03:43:56.822Z,4.99
2018-12-25T03:46:03.405Z,5.02
2018-12-25T03:46:53.459Z,4.87
2018-12-25T03:48:51.612Z,5.02
2018-12-25T03:49:51.567Z,4.97
2018-12-25T03:51:47.374Z,5.02
2018-12-25T03:52:47.332Z,5.06
2018-12-25T03:54:43.733Z,5.08
2018-12-25T03:55:43.684Z,5.02
2018-12-25T03:57:40.154Z,5.06
